默认 日期 大小 文件数 浏览量 最新下载 xml
top 2023磁力链接相关资源由用户搜索指令自动获取,结果来源于网络,本站不存储任何资料,亦不承担任何责任,请于24小时内删除,搜索到1569个磁力,用时12ms。
    {"cover.jpg": 37680, "013. Ive - I Am.mp3": 7486028, "042. Dk - Heart.mp3": 10404421, "006. Ive - Baddie.mp3": 6328959, "039. Ive - Kitsch.mp3": 7943012, "078. Bts - Butter.mp3": 6655619, "002. Aespa - Drama.mp3": 8648034, "035. Aespa - Spicy.mp3": 8002583 ...
创建时间: 2024-09-10 09:27:35 大小:795.82 MB 文件数量:101 热度:5 最近下载:2025-10-13 11:28:01
    ... Remix).mp3": 20303858, "VA - Top 8 December 2023 Emotional Uplifting Trance - Front ... .png": 396759, "VA - Top 8 December 2023 Emotional Uplifting Trance - 2024_tracklist ...
创建时间: 2024-09-11 13:11:03 大小:112.96 MB 文件数量:10 热度:5 最近下载:2025-05-02 23:57:02
    ... ": 12333199, "VA - Uplifting Only Top 15. December 2023 (Extended Mixes) - Front.png ... ": 18342401, "VA - Uplifting Only Top 15. December 2023 (Extended Mixes) - 2023_tracklist.txt ...
创建时间: 2024-09-16 17:19:19 大小:235.61 MB 文件数量:17 热度:3 最近下载:2025-03-14 07:31:02
    ... ": 16461537, "21 ROAD TO THE TOP.flac": 11769104, "01 Glorious Moment ... ビー ROAD TO THE TOP [Disc 1].cue": 7741, "ウ ... ビー ROAD TO THE TOP [Disc 1].log": 18738}, "Disc ... ビー ROAD TO THE TOP [Disc 2].cue": 9791, "ウ ... ビー ROAD TO THE TOP [Disc 2].log": 23351, "01 ...
创建时间: 2024-09-20 13:09:42 大小:1.33 GB 文件数量:63 热度:7 最近下载:2025-07-31 04:32:01
    ... Buuren & Cosmic Gate - REFLEXION (ASOT 2023 Anthem) [Official Visualizer] (1080p_25fps_H264-128kbit_AAC ...
创建时间: 2024-09-21 09:03:23 大小:14.19 GB 文件数量:97 热度:2 最近下载:2025-02-03 01:53:03
    {"cover.jpg": 79907, "25. Il Tre - A VOLTE.mp3": 6680510, "29. Arisa - La notte.mp3": 9578818, "23. Mr.Rain - SUPEREROI.mp3": 7972256, "31. Vance Joy - Riptide.mp3": 8344611, "12. Annalisa - Mon amour.mp3": 8301730, "19. Annalisa - Bellissima.mp3": 8226424 ...
创建时间: 2024-09-22 08:58:15 大小:293.71 MB 文件数量:41 热度:2 最近下载:2025-01-15 15:50:02
    {"001.mp4": 3955423, "项目获取网站.png": 7343, "永久发布页网址:8i2.org.mp4": 1956877, "永久发布页网址:8i2.org.png": 4953, "永久发布页网址:8i2.org.txt": 77, "项目发布页网址:8i2.org.rar": 5905093}
创建时间: 2024-10-05 08:11:36 大小:11.28 MB 文件数量:6 热度:36 最近下载:2025-10-16 19:02:28
    {"INFO.nfo": 1158, "cover.jpg": 93534, "31. Hal - L.mp3": 8920226, "09. aruma - Muak.mp3": 10694684, "32. keshi - LIMBO.mp3": 8563894, "42. NewJeans - OMG.mp3": 8717045, "03. Mahalini - Sial.mp3": 9819647, "07. SZA - Kill Bill.mp3": 6334696, "18. Tulus - ...
创建时间: 2024-10-06 15:23:03 大小:398.12 MB 文件数量:47 热度:3 最近下载:2025-01-13 08:13:06
    {"__ia_thumb.jpg": 6811, "[TopCinema].The.Family.Plan.2023.1080p.ATVP.WEB-DL.mp4": 1190312823, "top-cinema.-the.-family.-plan.-2023.1080p.-atvp.-web-dl_meta.xml": 680, "top-cinema.-the.-family.-plan.-2023.1080p.-atvp.-web-dl_meta.sqlite": 20480}
创建时间: 2024-10-07 19:50:55 大小:1.11 GB 文件数量:4 热度:5 最近下载:2025-09-19 03:42:02
    {"Cover.jpg": 280351, "00.Info.m3u": 2960, "00.Info.nfo": 4009, "OneHack.us.txt": 133, "15. Omer Avital - Afrik.flac": 187148622, "26. Jockstrap - Glasgow.flac": 38633908, "19. GoGo Penguin - Raven.flac": 91573537, "24. Tingvall Trio - Beat.flac": 76610697 ...
创建时间: 2024-10-20 17:22:02 大小:1.47 GB 文件数量:34 热度:10 最近下载:2025-03-12 08:53:03
    ... ": 71914796, "2 -OWASP API Top 10 2019 vs 2023.mp4": 35829461}, "6 ...
创建时间: 2024-10-28 08:50:24 大小:2.14 GB 文件数量:46 热度:4 最近下载:2025-02-07 11:52:03
    {"front.jpg": 25453, "The DJ Top 30 - December 16 2023.jpg": 151814, "The DJ Top 30 - December 16 2023-The DJ Top 30 Countdown.mp3": 229638886}
创建时间: 2024-11-06 12:21:16 大小:219.17 MB 文件数量:3 热度:6 最近下载:2025-09-20 09:50:03
    ... Charts Top 50 - Die Hits des Sommers 2023 - Front.png": 357832, "2023 - VA ... - Ballermann Charts Top 50 - Die ...
创建时间: 2024-11-16 16:32:16 大小:380.44 MB 文件数量:52 热度:5 最近下载:2025-03-10 14:56:02
    {"folder.jpg": 64408, "17. Minda - Photoa.mp3": 8168014, "07. Bali - No Mercy.mp3": 7761142, "04. Payal Dev - Current.mp3": 8357338, "08. Shreya Ghoshal - Uff.mp3": 8114681, "01. King - Maan Meri Jaan.mp3": 7927459, "18. Kanika - Runak Jhunak.mp3": 7763248 ...
创建时间: 2024-11-23 14:43:18 大小:235.43 MB 文件数量:31 热度:2 最近下载:2025-01-14 19:38:06
    {"cover.jpg": 22809, "017. Sasha - Lucky Day.mp3": 7899006, "045. Harpo - Christmas.mp3": 9346189, "039. James Blunt - Wisemen.mp3": 8898985, "074. Kelly Clarkson - Glow.mp3": 7959622, "098. Kate Winslet - What If.mp3": 9801780, "006. Heidi Klum - ...
创建时间: 2024-11-25 09:46:23 大小:754.35 MB 文件数量:101 热度:2 最近下载:2025-02-05 14:44:02
    {"[Hello].txt": 850, "Top Science Stories Of 2023.mp4": 1332427722, "[TGx]Downloaded from torrentgalaxy.to .txt": 585}
创建时间: 2024-11-28 17:40:01 大小:1.24 GB 文件数量:3 热度:4 最近下载:2025-02-18 06:35:02
    ... VS Bryan Danielson AEW Revolution 2023 (5.75).mp4": 1106868125, "2 ... VS Kenny Omega Forbidden Door 2023 (6).mp4": 820097688, "1. ... Shota Umino NJPW Power Struggle 2023 (5.75).mpeg": 1013244424, "9 ... Yuma Aoyagi AJPW Giant Series 2023 (5.25).mp4": 122025222, " ...
创建时间: 2024-11-29 17:05:35 大小:5.99 GB 文件数量:10 热度:3 最近下载:2025-01-14 19:38:10
    {"folder.jpg": 174878, "08. Tom Exo - Fairytales (Extended Mix).mp3": 17663027, "01. Akku - Megumi (Emotional Intro Edit).mp3": 11408270, "07. Fabio Solazzo - Artis (Extended Mix).mp3": 14159486, "11. Semper T. - The Seeker (Original Mix).mp3": ...
创建时间: 2025-01-10 08:59:41 大小:233.19 MB 文件数量:16 热度:3 最近下载:2025-03-08 01:52:01
    ... Network - Goa Trance Fullon Psychedelic Top 100 Best Selling Chart Hits ...
创建时间: 2025-01-13 08:38:40 大小:1.97 GB 文件数量:102 热度:2 最近下载:2025-03-07 14:04:01
    {"cover.jpg": 29275, "06. SZA - Kill Bill.mp3": 6502886, "14. RAYE - Escapism.mp3": 11033078, "17. KEES POP - Ciao.mp3": 7087031, "40. The Him - Fool Me.mp3": 5540967, "30. JVKE - golden hour.mp3": 8775126, "38. Deep Chills - Weak.mp3": 5802931, "02. d4vd ...
创建时间: 2025-01-17 08:35:41 大小:356.78 MB 文件数量:51 热度:3 最近下载:2025-03-07 10:31:02